< Typhoon 196808 1968 Season Typhoon 196810 >
Typhoon 196809 (SHIRLEY)
General InformationTrack Information on Google Maps || Disaster Info.ResourceGoogle EarthGE AnimationAtom FeedGeoJSON
Detalied Best Track (Time Zone = UTC)
Year Month Day Hour Lat. Long. Pressure (hPa) Wind (kt) Class Image Chart
1968 8 14 06 15.0 145.0 1007 0 2 -- Chart
1968 8 14 12 15.0 144.0 1008 0 2 -- Chart
1968 8 14 18 14.6 143.2 1006 0 2 -- Chart
1968 8 15 00 14.0 142.5 1008 0 2 -- Chart
1968 8 15 06 13.3 141.8 1006 0 2 -- Chart
1968 8 15 12 13.0 140.4 1006 0 2 -- Chart
1968 8 15 18 13.7 139.1 1006 0 2 -- Chart
1968 8 16 00 14.5 137.9 1006 0 2 -- Chart
1968 8 16 06 15.2 136.6 1004 0 2 -- Chart
1968 8 16 12 15.7 135.0 1004 0 2 -- Chart
1968 8 16 18 16.2 133.6 1004 0 2 -- Chart
1968 8 17 00 16.4 131.9 1002 0 2 -- Chart
1968 8 17 06 16.6 130.4 998 0 2 -- Chart
1968 8 17 12 16.2 129.4 996 0 2 -- Chart
1968 8 17 18 16.0 128.0 994 0 2 -- Chart
1968 8 18 00 15.7 126.7 990 0 9 -- Chart
1968 8 18 06 16.2 125.8 985 0 9 -- Chart
1968 8 18 12 16.6 125.2 980 0 9 -- Chart
1968 8 18 18 17.2 123.8 970 0 9 -- Chart
1968 8 19 00 17.5 122.8 960 0 9 -- Chart
1968 8 19 06 17.7 121.5 965 0 9 -- Chart
1968 8 19 12 18.2 120.1 965 0 9 -- Chart
1968 8 19 18 18.6 119.4 970 0 9 -- Chart
1968 8 20 00 19.0 118.5 975 0 9 -- Chart
1968 8 20 06 19.4 117.6 975 0 9 -- Chart
1968 8 20 12 19.6 117.2 965 0 9 -- Chart
1968 8 20 18 20.0 116.3 970 0 9 -- Chart
1968 8 21 00 20.8 115.3 965 0 9 -- Chart
1968 8 21 06 21.6 114.7 965 0 9 -- Chart
1968 8 21 12 22.3 114.1 970 0 9 -- Chart
1968 8 21 18 23.0 113.4 980 0 9 -- Chart
1968 8 22 00 24.3 112.5 990 0 9 -- Chart
1968 8 22 06 25.0 112.0 992 0 2 -- Chart
1968 8 22 12 25.6 111.5 994 0 2 -- Chart
1968 8 22 18 25.9 111.2 996 0 2 -- Chart
1968 8 23 00 26.2 111.0 998 0 2 -- Chart
1968 8 23 06 26.6 110.9 998 0 2 -- Chart
1968 8 23 12 27.4 111.2 998 0 2 -- Chart
1968 8 23 18 28.4 112.0 998 0 2 -- Chart
1968 8 24 00 29.0 112.3 1000 0 2 -- Chart
Japan Meteorological Agency Best Track Data | Correction Date : 1989-06-01
< Typhoon 196808 1968 Season Typhoon 196810 >

Help